Terminal Aerodrome Forecast
Issued by NWS Wilmington, OH

Current Version | Previous Version | Text Only | Print | Product List | Glossary Off
Versions: 1 2 3 4 5 6 7 8 9 10 11 12 13 14 15 16 17 18 19 20 21

000
FTUS41 KILN 151700
TAFDAY
TAF
KDAY 151731Z 1518/1618 08014G24KT P6SM BKN120
     FM160000 09012KT P6SM BKN060
     FM160800 10010KT P6SM VCSH OVC035
     FM161400 14008KT P6SM -SHRA OVC025=

USA.gov is the U.S. government's official web portal to all federal, state and local government web resources and services.